createdAt,value
2018-07-11T00:01:14.589Z,5.87
2018-07-11T00:03:46.556Z,4.80
2018-07-11T00:06:15.713Z,5.30
2018-07-11T00:08:43.435Z,6.10
2018-07-11T00:11:11.816Z,5.17
2018-07-11T00:13:40.333Z,7.80
2018-07-11T00:16:08.052Z,6.10
2018-07-11T00:18:35.906Z,6.23
2018-07-11T00:21:04.076Z,6.57
2018-07-11T00:23:32.340Z,7.73
2018-07-11T00:26:00.111Z,5.83
2018-07-11T00:28:27.904Z,6.40
2018-07-11T00:30:55.732Z,5.20
2018-07-11T00:33:23.632Z,6.90
2018-07-11T00:35:51.370Z,5.90
2018-07-11T00:38:19.147Z,9.67
2018-07-11T00:40:46.964Z,5.43
2018-07-11T00:43:14.972Z,5.27
2018-07-11T00:45:42.754Z,6.40
2018-07-11T00:48:10.549Z,6.37
2018-07-11T00:50:38.382Z,5.60
2018-07-11T00:53:06.957Z,6.80
2018-07-11T00:55:34.757Z,6.90
2018-07-11T00:58:38.261Z,5.93
2018-07-11T01:01:10.684Z,5.53
2018-07-11T01:03:39.814Z,6.00
2018-07-11T01:06:07.758Z,8.37
2018-07-11T01:08:38.161Z,6.63
2018-07-11T01:11:08.553Z,8.07
2018-07-11T01:13:36.728Z,5.97
2018-07-11T01:16:04.552Z,7.30
2018-07-11T01:18:32.746Z,6.97
2018-07-11T01:21:00.442Z,6.20
2018-07-11T01:23:28.291Z,5.60
2018-07-11T01:25:56.018Z,6.17
2018-07-11T01:28:23.798Z,5.07
2018-07-11T01:30:51.482Z,5.43
2018-07-11T01:33:19.231Z,5.33
2018-07-11T01:35:47.009Z,5.47
2018-07-11T01:38:14.766Z,5.60
2018-07-11T01:40:42.555Z,5.77
2018-07-11T01:43:10.324Z,4.87
2018-07-11T01:45:38.035Z,4.33
2018-07-11T01:48:05.912Z,4.60
2018-07-11T01:50:33.609Z,4.60
2018-07-11T01:53:01.346Z,5.03
2018-07-11T01:55:29.523Z,5.13
2018-07-11T01:57:58.717Z,5.40
2018-07-11T02:00:27.029Z,5.10
2018-07-11T02:02:54.961Z,5.37
2018-07-11T02:05:23.173Z,5.73
2018-07-11T02:07:50.997Z,5.50
2018-07-11T02:10:18.784Z,6.43
2018-07-11T02:12:46.551Z,5.47
2018-07-11T02:15:14.314Z,5.37
2018-07-11T02:17:42.080Z,5.17
2018-07-11T02:20:12.793Z,6.40
2018-07-11T02:22:40.881Z,4.57
2018-07-11T02:25:08.816Z,4.90
2018-07-11T02:27:36.609Z,4.90
2018-07-11T02:30:04.820Z,5.20
2018-07-11T02:32:33.381Z,5.80
2018-07-11T02:35:01.171Z,5.10
2018-07-11T02:37:28.994Z,4.93
2018-07-11T02:39:56.877Z,5.00
2018-07-11T02:42:24.754Z,4.60
2018-07-11T02:44:52.797Z,4.90
2018-07-11T02:47:25.839Z,4.70
2018-07-11T02:49:53.556Z,4.97
2018-07-11T02:52:21.321Z,4.23
2018-07-11T02:54:49.126Z,5.10
2018-07-11T02:57:16.862Z,5.10
2018-07-11T02:59:45.027Z,5.30
2018-07-11T03:02:12.796Z,7.23
2018-07-11T03:04:41.086Z,4.73
2018-07-11T03:07:09.658Z,4.93
2018-07-11T03:09:37.409Z,5.47
2018-07-11T03:12:05.163Z,5.37
2018-07-11T03:14:33.365Z,5.27
2018-07-11T03:17:01.052Z,5.73
2018-07-11T03:19:28.796Z,4.70
2018-07-11T03:21:56.565Z,5.03
2018-07-11T03:24:24.321Z,4.80
2018-07-11T03:26:52.111Z,5.40
2018-07-11T03:29:19.935Z,14.03
2018-07-11T03:31:47.622Z,5.60
2018-07-11T03:34:15.408Z,5.70
2018-07-11T03:36:43.132Z,5.80
2018-07-11T03:39:10.889Z,12.37
2018-07-11T03:41:38.575Z,5.23
2018-07-11T03:44:06.951Z,4.90
2018-07-11T03:46:34.816Z,5.13
2018-07-11T03:49:02.503Z,5.87
2018-07-11T03:51:30.338Z,5.30
2018-07-11T03:53:58.023Z,6.43
2018-07-11T03:56:25.758Z,12.30
2018-07-11T03:58:53.729Z,6.97
2018-07-11T04:01:21.418Z,6.20
2018-07-11T04:03:49.185Z,7.63
2018-07-11T04:06:16.941Z,7.10
2018-07-11T04:08:44.895Z,6.77
2018-07-11T04:11:12.606Z,6.80
2018-07-11T04:13:40.339Z,13.63
2018-07-11T04:16:08.112Z,5.87
2018-07-11T04:18:35.786Z,6.10
2018-07-11T04:21:03.827Z,6.10
2018-07-11T04:23:31.524Z,6.30
2018-07-11T04:25:59.560Z,6.40
2018-07-11T04:28:28.389Z,6.20
2018-07-11T04:30:56.215Z,7.03
2018-07-11T04:33:24.217Z,7.13
2018-07-11T04:35:53.001Z,7.27
2018-07-11T04:38:20.699Z,8.50
2018-07-11T04:40:49.128Z,7.70
2018-07-11T04:43:17.797Z,9.00
2018-07-11T04:45:46.707Z,13.47
2018-07-11T04:48:14.492Z,9.87
2018-07-11T04:50:42.262Z,8.17
2018-07-11T04:53:11.264Z,14.73
2018-07-11T04:55:39.625Z,7.77
2018-07-11T04:58:07.563Z,7.67
2018-07-11T05:00:35.272Z,8.30
2018-07-11T05:03:03.205Z,8.60
2018-07-11T05:05:30.912Z,7.77
2018-07-11T05:07:58.642Z,9.77
2018-07-11T05:10:26.324Z,8.47
2018-07-11T05:12:54.058Z,10.37
2018-07-11T05:15:21.734Z,10.10
2018-07-11T05:17:49.515Z,9.97
2018-07-11T05:20:17.255Z,7.50
2018-07-11T05:22:44.949Z,9.27
2018-07-11T05:25:12.684Z,8.60
2018-07-11T05:27:40.470Z,9.10
2018-07-11T05:30:08.125Z,8.40
2018-07-11T05:32:35.792Z,9.10
2018-07-11T05:35:03.526Z,9.70
2018-07-11T05:37:31.227Z,9.00
2018-07-11T05:39:58.958Z,8.90
2018-07-11T05:42:26.703Z,9.77
2018-07-11T05:44:54.404Z,9.17
2018-07-11T05:47:22.143Z,9.27
2018-07-11T05:49:49.882Z,8.57
2018-07-11T05:52:17.560Z,9.63
2018-07-11T05:54:45.342Z,10.07
2018-07-11T05:57:13.114Z,10.20
2018-07-11T05:59:40.811Z,9.53
2018-07-11T06:02:08.556Z,10.37
2018-07-11T06:04:36.331Z,9.73
2018-07-11T06:07:04.062Z,11.03
2018-07-11T06:09:31.787Z,10.57
2018-07-11T06:11:59.496Z,13.10
2018-07-11T06:14:27.214Z,11.53
2018-07-11T06:16:54.923Z,10.83
2018-07-11T06:19:22.820Z,11.90
2018-07-11T06:21:51.293Z,10.20
2018-07-11T06:24:20.922Z,10.97
2018-07-11T06:26:48.972Z,12.70
2018-07-11T06:29:16.955Z,11.53
2018-07-11T06:31:44.995Z,10.10
2018-07-11T06:34:12.875Z,11.13
2018-07-11T06:36:40.838Z,11.03
2018-07-11T06:39:08.918Z,11.57
2018-07-11T06:41:37.743Z,10.77
2018-07-11T06:44:06.443Z,11.70
2018-07-11T06:46:35.364Z,12.37
2018-07-11T06:49:03.462Z,11.23
2018-07-11T06:51:31.192Z,9.90
2018-07-11T06:53:58.891Z,10.87
2018-07-11T06:56:26.755Z,10.40
2018-07-11T06:58:54.705Z,11.90
2018-07-11T07:01:22.587Z,14.43
2018-07-11T07:03:50.343Z,11.47
2018-07-11T07:06:18.014Z,11.97
2018-07-11T07:08:45.777Z,12.03
2018-07-11T07:11:13.540Z,12.07
2018-07-11T07:13:41.308Z,10.97
2018-07-11T07:16:08.991Z,11.87
2018-07-11T07:18:36.740Z,11.30
2018-07-11T07:21:04.491Z,12.70
2018-07-11T07:23:33.440Z,11.97
2018-07-11T07:26:01.361Z,12.90
2018-07-11T07:28:29.102Z,11.97
2018-07-11T07:30:56.793Z,14.57
2018-07-11T07:33:24.553Z,13.87
2018-07-11T07:35:52.321Z,13.50
2018-07-11T07:38:20.093Z,13.30
2018-07-11T07:40:47.845Z,13.93
2018-07-11T07:43:15.863Z,15.17
2018-07-11T07:45:43.774Z,14.10
2018-07-11T07:48:11.478Z,14.10
2018-07-11T07:50:39.292Z,13.40
2018-07-11T07:53:07.064Z,13.40
2018-07-11T07:55:35.160Z,12.30
2018-07-11T07:58:02.947Z,15.27
2018-07-11T08:00:30.707Z,13.27
2018-07-11T08:02:58.739Z,12.80
2018-07-11T08:05:26.528Z,13.20
2018-07-11T08:07:54.386Z,11.43
2018-07-11T08:10:22.412Z,12.37
2018-07-11T08:12:50.245Z,12.20
2018-07-11T08:15:17.983Z,10.63
2018-07-11T08:17:45.761Z,23.17
2018-07-11T08:20:13.561Z,9.30
2018-07-11T08:23:13.047Z,9.17
2018-07-11T08:25:46.622Z,10.80
2018-07-11T08:28:20.943Z,10.37
2018-07-11T08:30:54.749Z,10.67
2018-07-11T08:33:29.140Z,13.17
2018-07-11T08:36:02.292Z,10.20
2018-07-11T08:38:35.245Z,9.80
2018-07-11T08:41:08.463Z,10.23
2018-07-11T08:43:51.489Z,8.83
2018-07-11T08:46:24.685Z,9.93
2018-07-11T08:48:58.534Z,9.17
2018-07-11T08:51:35.763Z,10.33
2018-07-11T08:54:22.972Z,9.60
2018-07-11T08:59:01.358Z,10.50
2018-07-11T09:01:34.708Z,9.00
2018-07-11T09:04:38.332Z,9.00
2018-07-11T09:09:16.634Z,12.33
2018-07-11T09:11:50.647Z,9.50
2018-07-11T09:24:27.902Z,9.20
2018-07-11T09:26:55.548Z,9.00
2018-07-11T09:29:23.218Z,9.80
2018-07-11T09:31:50.866Z,9.97
2018-07-11T09:34:18.643Z,9.07
2018-07-11T09:36:46.639Z,8.47
2018-07-11T09:39:14.343Z,10.23
2018-07-11T09:41:42.129Z,9.13
2018-07-11T09:44:09.823Z,33.77
2018-07-11T09:46:37.608Z,11.37
2018-07-11T09:49:05.665Z,20.00
2018-07-11T09:51:33.524Z,13.50
2018-07-11T09:54:01.274Z,9.47
2018-07-11T09:56:29.234Z,8.13
2018-07-11T09:58:57.222Z,16.70
2018-07-11T10:01:27.932Z,8.60
2018-07-11T10:03:57.262Z,18.13
2018-07-11T10:06:25.539Z,7.47
2018-07-11T10:08:53.720Z,8.07
2018-07-11T10:11:21.597Z,7.17
2018-07-11T10:13:49.834Z,9.50
2018-07-11T10:16:18.022Z,7.80
2018-07-11T10:18:51.360Z,9.83
2018-07-11T10:21:19.298Z,7.20
2018-07-11T10:23:47.292Z,6.37
2018-07-11T10:26:15.183Z,6.50
2018-07-11T10:28:42.993Z,6.30
2018-07-11T10:31:10.963Z,7.53
2018-07-11T10:33:38.833Z,5.70
2018-07-11T10:36:06.706Z,5.80
2018-07-11T10:38:34.577Z,6.53
2018-07-11T10:41:02.638Z,6.23
2018-07-11T10:43:30.606Z,6.63
2018-07-11T10:45:58.575Z,6.50
2018-07-11T10:48:26.867Z,6.50
2018-07-11T10:50:54.835Z,6.33
2018-07-11T10:53:22.702Z,7.43
2018-07-11T10:55:50.677Z,6.90
2018-07-11T10:58:18.741Z,6.47
2018-07-11T11:01:05.033Z,7.73
2018-07-11T11:03:14.786Z,5.50
2018-07-11T11:05:42.535Z,5.70
2018-07-11T11:08:10.339Z,5.10
2018-07-11T11:10:38.385Z,5.43
2018-07-11T11:13:06.274Z,4.37
2018-07-11T11:15:34.223Z,4.60
2018-07-11T11:18:02.085Z,4.33
2018-07-11T11:20:30.147Z,3.70
2018-07-11T11:22:58.022Z,3.87
2018-07-11T11:25:27.169Z,3.93
2018-07-11T11:27:55.111Z,3.30
2018-07-11T11:30:23.009Z,3.40
2018-07-11T11:32:50.850Z,3.37
2018-07-11T11:35:18.687Z,5.17
2018-07-11T11:37:47.135Z,3.00
2018-07-11T11:40:14.948Z,3.07
2018-07-11T11:42:44.488Z,2.40
2018-07-11T11:45:12.316Z,5.63
2018-07-11T11:47:40.297Z,3.10
2018-07-11T11:50:08.144Z,4.43
2018-07-11T11:52:36.224Z,2.77
2018-07-11T11:55:04.038Z,2.90
2018-07-11T11:57:31.816Z,3.07
2018-07-11T11:59:59.732Z,3.10
2018-07-11T12:02:27.602Z,3.17
2018-07-11T12:04:55.459Z,3.00
2018-07-11T12:07:23.430Z,2.93
2018-07-11T12:09:51.401Z,2.80
2018-07-11T12:12:19.458Z,3.33
2018-07-11T12:14:47.147Z,4.70
2018-07-11T12:17:14.920Z,3.33
2018-07-11T12:19:44.505Z,3.00
2018-07-11T12:22:14.839Z,3.10
2018-07-11T12:24:42.571Z,3.80
2018-07-11T12:27:10.363Z,5.63
2018-07-11T12:29:38.086Z,4.33
2018-07-11T12:32:05.794Z,4.70
2018-07-11T12:34:33.455Z,7.17
2018-07-11T12:37:01.215Z,6.93
2018-07-11T12:39:28.973Z,4.50
2018-07-11T12:41:56.732Z,3.17
2018-07-11T12:44:24.510Z,3.20
2018-07-11T12:46:52.270Z,3.23
2018-07-11T12:49:20.966Z,10.70
2018-07-11T12:51:48.674Z,3.80
2018-07-11T12:54:16.367Z,3.00
2018-07-11T12:56:44.028Z,3.30
2018-07-11T12:59:11.798Z,3.87
2018-07-11T13:01:39.500Z,3.23
2018-07-11T13:04:07.351Z,3.23
2018-07-11T13:06:35.611Z,3.37
2018-07-11T13:09:03.494Z,3.10
2018-07-11T13:11:31.205Z,3.63
2018-07-11T13:13:58.959Z,3.97
2018-07-11T13:16:26.665Z,5.10
2018-07-11T13:18:54.431Z,3.77
2018-07-11T13:21:22.213Z,4.37
2018-07-11T13:23:49.959Z,4.90
2018-07-11T13:26:17.674Z,3.90
2018-07-11T13:28:45.495Z,4.63
2018-07-11T13:31:13.200Z,4.30
2018-07-11T13:33:41.236Z,4.90
2018-07-11T13:36:09.018Z,3.70
2018-07-11T13:38:36.750Z,4.00
2018-07-11T13:41:04.434Z,4.37
2018-07-11T13:43:32.120Z,3.60
2018-07-11T13:45:59.832Z,3.10
2018-07-11T13:48:27.840Z,3.43
2018-07-11T13:50:55.601Z,2.80
2018-07-11T13:53:23.351Z,4.53
2018-07-11T13:55:51.098Z,3.37
2018-07-11T13:58:18.811Z,2.90
2018-07-11T14:00:46.539Z,3.57
2018-07-11T14:03:14.299Z,3.93
2018-07-11T14:05:42.000Z,3.90
2018-07-11T14:08:09.730Z,3.33
2018-07-11T14:10:37.390Z,3.53
2018-07-11T14:13:05.074Z,4.67
2018-07-11T14:15:32.815Z,3.90
2018-07-11T14:18:00.511Z,2.77
2018-07-11T14:20:28.315Z,4.03
2018-07-11T14:23:00.325Z,4.20
2018-07-11T14:25:28.097Z,5.77
2018-07-11T14:27:55.883Z,4.30
2018-07-11T14:30:23.625Z,3.37
2018-07-11T14:32:52.213Z,3.43
2018-07-11T14:35:20.256Z,3.47
2018-07-11T14:37:49.158Z,3.47
2018-07-11T14:40:16.930Z,3.50
2018-07-11T14:42:45.305Z,3.63
2018-07-11T14:45:13.284Z,3.93
2018-07-11T14:47:46.268Z,3.70
2018-07-11T14:50:14.026Z,3.93
2018-07-11T14:52:41.801Z,4.03
2018-07-11T14:55:09.542Z,4.33
2018-07-11T14:57:37.323Z,4.50
2018-07-11T15:00:05.120Z,4.30
2018-07-11T15:02:33.206Z,4.43
2018-07-11T15:05:00.856Z,3.90
2018-07-11T15:07:29.105Z,4.50
2018-07-11T15:09:56.908Z,5.27
2018-07-11T15:12:24.619Z,3.87
2018-07-11T15:14:52.485Z,3.90
2018-07-11T15:17:20.229Z,8.00
2018-07-11T15:19:48.054Z,3.60
2018-07-11T15:22:15.826Z,4.77
2018-07-11T15:24:43.547Z,3.77
2018-07-11T15:27:11.318Z,4.80
2018-07-11T15:29:40.007Z,3.87
2018-07-11T15:32:07.758Z,4.17
2018-07-11T15:34:35.506Z,4.40
2018-07-11T15:37:03.293Z,3.97
2018-07-11T15:39:31.077Z,4.47
2018-07-11T15:41:58.832Z,3.63
2018-07-11T15:44:26.608Z,3.40
2018-07-11T15:46:54.370Z,3.80
2018-07-11T15:49:22.159Z,4.50
2018-07-11T15:51:49.954Z,3.97
2018-07-11T15:54:17.766Z,3.47
2018-07-11T15:56:45.720Z,4.67
2018-07-11T15:59:14.471Z,4.40
2018-07-11T16:01:43.992Z,5.27
2018-07-11T16:04:11.815Z,4.70
2018-07-11T16:06:39.615Z,5.10
2018-07-11T16:09:07.388Z,5.40
2018-07-11T16:11:35.109Z,4.60
2018-07-11T16:14:02.823Z,5.37
2018-07-11T16:16:30.564Z,6.03
2018-07-11T16:18:58.379Z,6.40
2018-07-11T16:21:26.193Z,13.70
2018-07-11T16:23:54.015Z,7.50
2018-07-11T16:26:22.243Z,7.73
2018-07-11T16:28:50.041Z,7.17
2018-07-11T16:31:17.749Z,7.73
2018-07-11T16:33:45.482Z,8.00
2018-07-11T16:36:13.173Z,7.53
2018-07-11T16:38:40.917Z,7.53
2018-07-11T16:41:08.575Z,7.23
2018-07-11T16:43:36.411Z,6.33
2018-07-11T16:46:04.314Z,8.90
2018-07-11T16:48:32.170Z,7.30
2018-07-11T16:50:59.944Z,6.53
2018-07-11T16:53:27.713Z,7.20
2018-07-11T16:55:55.512Z,7.80
2018-07-11T16:58:24.397Z,8.03
2018-07-11T17:00:52.345Z,5.33
2018-07-11T17:03:20.158Z,5.60
2018-07-11T17:05:58.124Z,5.20
2018-07-11T17:08:30.738Z,5.57
2018-07-11T17:11:01.169Z,5.70
2018-07-11T17:13:28.992Z,5.93
2018-07-11T17:15:56.800Z,6.07
2018-07-11T17:18:29.962Z,6.23
2018-07-11T17:20:59.090Z,5.27
2018-07-11T17:23:26.952Z,5.30
2018-07-11T17:25:54.776Z,5.03
2018-07-11T17:28:22.586Z,4.80
2018-07-11T17:30:50.408Z,4.77
2018-07-11T17:33:18.284Z,5.87
2018-07-11T17:35:49.574Z,4.67
2018-07-11T17:38:18.126Z,4.67
2018-07-11T17:40:47.291Z,6.37
2018-07-11T17:43:17.288Z,5.80
2018-07-11T17:45:45.135Z,4.67
2018-07-11T17:48:19.361Z,4.70
2018-07-11T17:50:47.124Z,4.87
2018-07-11T17:53:17.451Z,4.53
2018-07-11T17:56:15.963Z,4.67
2018-07-11T17:58:47.994Z,4.33
2018-07-11T18:01:15.959Z,3.80
2018-07-11T18:03:48.562Z,4.37
2018-07-11T18:06:49.694Z,4.00
2018-07-11T18:09:17.605Z,4.40
2018-07-11T18:11:59.108Z,6.73
2018-07-11T18:14:29.849Z,4.10
2018-07-11T18:16:59.380Z,4.63
2018-07-11T18:19:32.556Z,4.57
2018-07-11T18:22:05.740Z,4.10
2018-07-11T18:24:38.917Z,4.20
2018-07-11T18:27:10.876Z,4.13
2018-07-11T18:29:49.717Z,4.17
2018-07-11T18:32:21.040Z,4.23
2018-07-11T18:34:52.725Z,4.30
2018-07-11T18:37:24.897Z,3.87
2018-07-11T18:39:58.696Z,3.67
2018-07-11T18:42:33.642Z,4.13
2018-07-11T18:45:11.931Z,3.83
2018-07-11T18:47:44.086Z,3.70
2018-07-11T18:50:15.594Z,4.40
2018-07-11T18:52:45.688Z,3.77
2018-07-11T18:55:24.383Z,9.15
2018-07-11T18:58:11.530Z,3.20
2018-07-11T19:00:42.982Z,4.80
2018-07-11T19:05:25.085Z,4.27
2018-07-11T19:07:56.896Z,3.80
2018-07-11T19:10:27.734Z,3.70
2018-07-11T19:12:59.489Z,4.27
2018-07-11T19:15:37.315Z,4.17
2018-07-11T19:18:08.789Z,4.30
2018-07-11T19:20:37.947Z,3.93
2018-07-11T19:33:01.822Z,4.23
2018-07-11T19:37:37.781Z,3.30
2018-07-11T19:40:08.686Z,4.40
2018-07-11T19:42:42.008Z,4.30
2018-07-11T19:45:16.180Z,3.03
2018-07-11T19:47:47.876Z,4.50
2018-07-11T19:52:23.968Z,4.20
2018-07-11T19:55:01.523Z,4.43
2018-07-11T19:57:29.328Z,5.00
2018-07-11T19:59:57.158Z,4.10
2018-07-11T20:02:24.986Z,3.67
2018-07-11T20:04:53.271Z,3.93
2018-07-11T20:07:21.070Z,4.33
2018-07-11T20:09:48.895Z,3.90
2018-07-11T20:12:16.644Z,4.10
2018-07-11T20:14:44.502Z,4.07
2018-07-11T20:17:12.253Z,4.53
2018-07-11T20:19:40.090Z,3.67
2018-07-11T20:22:07.854Z,3.93
2018-07-11T20:24:35.624Z,4.07
2018-07-11T20:27:03.414Z,3.53
2018-07-11T20:29:31.291Z,4.00
2018-07-11T20:31:59.050Z,3.70
2018-07-11T20:34:27.235Z,3.93
2018-07-11T20:36:55.329Z,3.60
2018-07-11T20:39:23.103Z,3.23
2018-07-11T20:41:50.842Z,3.33
2018-07-11T20:44:18.530Z,3.80
2018-07-11T20:46:46.292Z,3.97
2018-07-11T20:49:19.355Z,5.20
2018-07-11T20:51:47.055Z,4.33
2018-07-11T20:54:14.773Z,3.93
2018-07-11T20:56:42.496Z,3.70
2018-07-11T20:59:16.106Z,3.40
2018-07-11T21:01:49.203Z,4.13
2018-07-11T21:04:23.954Z,3.73
2018-07-11T21:06:57.191Z,5.20
2018-07-11T21:09:34.676Z,7.43
2018-07-11T21:13:05.539Z,3.77
2018-07-11T21:15:38.756Z,4.23
2018-07-11T21:18:15.268Z,4.50
2018-07-11T21:20:42.970Z,4.03
2018-07-11T21:24:28.256Z,3.60
2018-07-11T21:26:56.068Z,3.87
2018-07-11T21:29:23.824Z,4.97
2018-07-11T21:31:51.617Z,3.37
2018-07-11T21:34:19.360Z,3.90
2018-07-11T21:36:47.123Z,3.90
2018-07-11T21:39:15.106Z,6.50
2018-07-11T21:41:42.820Z,2.73
2018-07-11T21:44:10.482Z,3.00
2018-07-11T21:46:38.223Z,4.70
2018-07-11T21:49:05.921Z,3.20
2018-07-11T21:51:33.614Z,2.90
2018-07-11T21:54:01.314Z,2.80
2018-07-11T21:56:29.031Z,2.90
2018-07-11T21:58:56.818Z,3.10
2018-07-11T22:01:24.594Z,3.17
2018-07-11T22:03:52.326Z,3.63
2018-07-11T22:06:20.062Z,3.03
2018-07-11T22:08:47.785Z,5.10
2018-07-11T22:11:15.546Z,3.73
2018-07-11T22:13:43.287Z,3.33
2018-07-11T22:16:10.971Z,3.77
2018-07-11T22:18:40.321Z,4.03
2018-07-11T22:21:08.451Z,5.00
2018-07-11T22:23:35.405Z,3.33
2018-07-11T22:26:02.618Z,3.53
2018-07-11T22:28:29.655Z,5.40
2018-07-11T22:30:56.620Z,3.10
2018-07-11T22:33:23.666Z,3.50
2018-07-11T22:35:50.630Z,4.03
2018-07-11T22:38:17.600Z,8.37
2018-07-11T22:40:45.312Z,4.83
2018-07-11T22:43:12.314Z,3.77
2018-07-11T22:45:39.320Z,6.37
2018-07-11T22:48:06.294Z,6.23
2018-07-11T22:50:33.342Z,6.67
2018-07-11T22:53:00.355Z,4.30
2018-07-11T22:55:27.322Z,4.10
2018-07-11T22:57:54.285Z,4.50
2018-07-11T23:00:21.294Z,5.73
2018-07-11T23:02:48.295Z,6.37
2018-07-11T23:05:15.303Z,4.83
2018-07-11T23:07:42.270Z,6.77
2018-07-11T23:10:09.287Z,3.97
2018-07-11T23:12:36.335Z,4.00
2018-07-11T23:15:03.365Z,4.83
2018-07-11T23:17:30.365Z,5.07
2018-07-11T23:19:57.364Z,5.80
2018-07-11T23:22:24.353Z,4.70
2018-07-11T23:24:51.365Z,4.83
2018-07-11T23:27:18.352Z,4.83
2018-07-11T23:29:45.306Z,7.37
2018-07-11T23:32:12.310Z,5.47
2018-07-11T23:34:39.283Z,6.23
2018-07-11T23:37:06.334Z,5.47
2018-07-11T23:39:33.363Z,6.87
2018-07-11T23:42:00.327Z,5.70
2018-07-11T23:44:27.365Z,6.83
2018-07-11T23:46:54.631Z,5.33
2018-07-11T23:49:21.619Z,8.30
2018-07-11T23:51:48.616Z,5.70
2018-07-11T23:54:15.643Z,6.77
2018-07-11T23:56:42.608Z,6.93
2018-07-11T23:59:09.577Z,6.10
